sensor_id;sensor_type;location;lat;lon;timestamp;pressure;altitude;pressure_sealevel;temperature;humidity
56831;BME280;42713;42.676;23.352;2022-09-12T00:00:19;94595.81;;;15.34;81.72
56831;BME280;42713;42.676;23.352;2022-09-12T00:02:51;94596.38;;;15.31;81.71
56831;BME280;42713;42.676;23.352;2022-09-12T00:05:17;94596.38;;;15.31;81.44
56831;BME280;42713;42.676;23.352;2022-09-12T00:07:43;94596.38;;;15.31;81.72
56831;BME280;42713;42.676;23.352;2022-09-12T00:10:08;94603.25;;;15.27;81.04
56831;BME280;42713;42.676;23.352;2022-09-12T00:12:33;94613.03;;;15.26;81.08
56831;BME280;42713;42.676;23.352;2022-09-12T00:14:59;94613.34;;;15.19;81.76
56831;BME280;42713;42.676;23.352;2022-09-12T00:17:24;94612.91;;;15.02;81.97
56831;BME280;42713;42.676;23.352;2022-09-12T00:19:50;94619.31;;;14.90;82.58
56831;BME280;42713;42.676;23.352;2022-09-12T00:22:15;94620.88;;;14.91;83.31
56831;BME280;42713;42.676;23.352;2022-09-12T00:24:41;94611.41;;;14.85;83.82
56831;BME280;42713;42.676;23.352;2022-09-12T00:27:06;94620.63;;;14.88;82.46
56831;BME280;42713;42.676;23.352;2022-09-12T00:29:32;94610.09;;;14.88;82.41
56831;BME280;42713;42.676;23.352;2022-09-12T00:31:57;94614.06;;;14.80;81.85
56831;BME280;42713;42.676;23.352;2022-09-12T00:34:23;94619.88;;;14.77;82.25
56831;BME280;42713;42.676;23.352;2022-09-12T00:36:48;94602.25;;;14.72;82.10
56831;BME280;42713;42.676;23.352;2022-09-12T00:39:15;94600.91;;;14.75;82.00
56831;BME280;42713;42.676;23.352;2022-09-12T00:41:44;94612.53;;;14.69;82.34
56831;BME280;42713;42.676;23.352;2022-09-12T00:46:59;94615.94;;;14.74;81.89
56831;BME280;42713;42.676;23.352;2022-09-12T00:51:58;94607.00;;;14.65;81.49
56831;BME280;42713;42.676;23.352;2022-09-12T00:54:28;94602.00;;;14.69;81.50
56831;BME280;42713;42.676;23.352;2022-09-12T00:56:56;94615.69;;;14.66;81.25
56831;BME280;42713;42.676;23.352;2022-09-12T00:59:28;94614.91;;;14.70;80.97
56831;BME280;42713;42.676;23.352;2022-09-12T01:01:56;94600.16;;;14.64;80.99
56831;BME280;42713;42.676;23.352;2022-09-12T01:04:24;94615.97;;;14.64;81.84
56831;BME280;42713;42.676;23.352;2022-09-12T01:06:51;94595.16;;;14.57;81.56
56831;BME280;42713;42.676;23.352;2022-09-12T01:09:21;94593.28;;;14.63;81.92
56831;BME280;42713;42.676;23.352;2022-09-12T01:11:48;94588.31;;;14.61;80.71
56831;BME280;42713;42.676;23.352;2022-09-12T01:14:15;94592.50;;;14.68;81.13
56831;BME280;42713;42.676;23.352;2022-09-12T01:16:42;94595.41;;;14.66;80.94
56831;BME280;42713;42.676;23.352;2022-09-12T01:27:32;94590.72;;;14.47;80.76
56831;BME280;42713;42.676;23.352;2022-09-12T01:32:41;94585.50;;;14.37;81.22
56831;BME280;42713;42.676;23.352;2022-09-12T01:35:40;94594.47;;;14.36;80.33
56831;BME280;42713;42.676;23.352;2022-09-12T01:46:46;94586.31;;;14.27;80.60
56831;BME280;42713;42.676;23.352;2022-09-12T01:49:23;94585.53;;;14.22;81.10
56831;BME280;42713;42.676;23.352;2022-09-12T01:51:58;94582.13;;;14.21;81.05
56831;BME280;42713;42.676;23.352;2022-09-12T01:54:46;94580.53;;;14.25;80.73
56831;BME280;42713;42.676;23.352;2022-09-12T01:57:28;94580.25;;;14.22;80.63
56831;BME280;42713;42.676;23.352;2022-09-12T02:00:00;94587.38;;;14.16;80.70
56831;BME280;42713;42.676;23.352;2022-09-12T02:02:35;94581.38;;;14.10;80.58
56831;BME280;42713;42.676;23.352;2022-09-12T02:05:13;94589.00;;;14.07;80.23
56831;BME280;42713;42.676;23.352;2022-09-12T02:07:42;94580.06;;;14.03;80.46
56831;BME280;42713;42.676;23.352;2022-09-12T02:10:13;94580.03;;;14.08;79.86
56831;BME280;42713;42.676;23.352;2022-09-12T02:12:46;94589.78;;;14.02;79.95
56831;BME280;42713;42.676;23.352;2022-09-12T02:15:14;94592.69;;;14.00;80.68
56831;BME280;42713;42.676;23.352;2022-09-12T02:17:43;94591.66;;;13.96;80.51
56831;BME280;42713;42.676;23.352;2022-09-12T02:20:17;94588.50;;;13.94;80.13
56831;BME280;42713;42.676;23.352;2022-09-12T02:22:44;94589.81;;;13.92;80.20
56831;BME280;42713;42.676;23.352;2022-09-12T02:25:15;94583.00;;;13.85;80.27
56831;BME280;42713;42.676;23.352;2022-09-12T02:27:47;94589.06;;;13.86;80.35
56831;BME280;42713;42.676;23.352;2022-09-12T02:30:14;94589.31;;;13.79;80.34
56831;BME280;42713;42.676;23.352;2022-09-12T02:35:31;94589.06;;;13.86;79.58
56831;BME280;42713;42.676;23.352;2022-09-12T02:38:04;94590.38;;;13.89;79.96
56831;BME280;42713;42.676;23.352;2022-09-12T02:40:33;94586.44;;;13.86;80.05
56831;BME280;42713;42.676;23.352;2022-09-12T02:43:00;94587.19;;;13.87;79.56
56831;BME280;42713;42.676;23.352;2022-09-12T02:45:27;94590.88;;;13.85;80.03
56831;BME280;42713;42.676;23.352;2022-09-12T02:48:01;94594.03;;;13.88;79.10
56831;BME280;42713;42.676;23.352;2022-09-12T02:50:30;94595.91;;;13.82;79.33
56831;BME280;42713;42.676;23.352;2022-09-12T02:52:57;94586.69;;;13.79;79.74
56831;BME280;42713;42.676;23.352;2022-09-12T02:55:30;94584.59;;;13.76;79.60
56831;BME280;42713;42.676;23.352;2022-09-12T02:57:56;94589.56;;;13.78;79.70
56831;BME280;42713;42.676;23.352;2022-09-12T03:00:22;94600.09;;;13.78;80.24
56831;BME280;42713;42.676;23.352;2022-09-12T03:03:18;94602.50;;;13.69;79.32
56831;BME280;42713;42.676;23.352;2022-09-12T03:08:49;94606.16;;;13.73;79.38
56831;BME280;42713;42.676;23.352;2022-09-12T03:16:41;94614.06;;;13.73;79.66
56831;BME280;42713;42.676;23.352;2022-09-12T03:19:36;94610.38;;;13.74;79.76
56831;BME280;42713;42.676;23.352;2022-09-12T03:27:39;94596.97;;;13.60;79.66
56831;BME280;42713;42.676;23.352;2022-09-12T03:30:09;94603.03;;;13.61;80.09
56831;BME280;42713;42.676;23.352;2022-09-12T03:32:48;94609.59;;;13.63;80.12
56831;BME280;42713;42.676;23.352;2022-09-12T03:35:16;94598.00;;;13.59;79.94
56831;BME280;42713;42.676;23.352;2022-09-12T03:37:42;94603.03;;;13.61;79.99
56831;BME280;42713;42.676;23.352;2022-09-12T03:40:09;94596.97;;;13.65;80.26
56831;BME280;42713;42.676;23.352;2022-09-12T03:42:35;94604.59;;;13.62;80.03
56831;BME280;42713;42.676;23.352;2022-09-12T03:45:01;94599.34;;;13.67;79.75
56831;BME280;42713;42.676;23.352;2022-09-12T03:47:26;94606.16;;;13.63;80.00
56831;BME280;42713;42.676;23.352;2022-09-12T03:49:52;94603.28;;;13.59;80.11
56831;BME280;42713;42.676;23.352;2022-09-12T03:52:18;94603.00;;;13.56;79.86
56831;BME280;42713;42.676;23.352;2022-09-12T03:54:43;94610.91;;;13.56;80.02
56831;BME280;42713;42.676;23.352;2022-09-12T03:57:09;94606.44;;;13.61;79.89
56831;BME280;42713;42.676;23.352;2022-09-12T03:59:35;94608.81;;;13.58;80.28
56831;BME280;42713;42.676;23.352;2022-09-12T04:02:00;94610.66;;;13.62;79.80
56831;BME280;42713;42.676;23.352;2022-09-12T04:04:26;94606.44;;;13.61;79.96
56831;BME280;42713;42.676;23.352;2022-09-12T04:06:51;94608.53;;;13.59;79.90
56831;BME280;42713;42.676;23.352;2022-09-12T04:09:17;94610.13;;;13.60;79.98
56831;BME280;42713;42.676;23.352;2022-09-12T04:11:42;94604.34;;;13.53;79.47
56831;BME280;42713;42.676;23.352;2022-09-12T04:14:08;94611.19;;;13.54;79.83
56831;BME280;42713;42.676;23.352;2022-09-12T04:16:33;94608.81;;;13.47;79.83
56831;BME280;42713;42.676;23.352;2022-09-12T04:18:58;94614.84;;;13.48;80.20
56831;BME280;42713;42.676;23.352;2022-09-12T04:21:24;94615.63;;;13.53;80.29
56831;BME280;42713;42.676;23.352;2022-09-12T04:23:49;94616.97;;;13.56;80.09
56831;BME280;42713;42.676;23.352;2022-09-12T04:26:17;94620.66;;;13.60;79.98
56831;BME280;42713;42.676;23.352;2022-09-12T04:28:43;94623.53;;;13.59;79.94
56831;BME280;42713;42.676;23.352;2022-09-12T04:31:15;94624.59;;;13.58;79.84
56831;BME280;42713;42.676;23.352;2022-09-12T04:33:47;94628.25;;;13.62;79.99
56831;BME280;42713;42.676;23.352;2022-09-12T04:36:17;94625.91;;;13.65;79.55
56831;BME280;42713;42.676;23.352;2022-09-12T04:38:44;94617.47;;;13.68;79.47
56831;BME280;42713;42.676;23.352;2022-09-12T04:43:37;94619.59;;;13.66;80.09
56831;BME280;42713;42.676;23.352;2022-09-12T04:46:06;94614.59;;;13.70;79.53
56831;BME280;42713;42.676;23.352;2022-09-12T04:48:32;94625.91;;;13.70;79.78
56831;BME280;42713;42.676;23.352;2022-09-12T04:51:16;94633.53;;;13.72;79.78
56831;BME280;42713;42.676;23.352;2022-09-12T04:53:46;94626.72;;;13.71;79.56
56831;BME280;42713;42.676;23.352;2022-09-12T04:56:11;94626.97;;;13.75;79.81
56831;BME280;42713;42.676;23.352;2022-09-12T04:58:37;94625.91;;;13.70;79.42
56831;BME280;42713;42.676;23.352;2022-09-12T05:01:11;94620.13;;;13.74;79.75
56831;BME280;42713;42.676;23.352;2022-09-12T05:03:37;94619.06;;;13.75;79.62
56831;BME280;42713;42.676;23.352;2022-09-12T05:06:05;94631.97;;;13.76;79.80
56831;BME280;42713;42.676;23.352;2022-09-12T05:08:32;94629.59;;;13.80;79.46
56831;BME280;42713;42.676;23.352;2022-09-12T05:11:03;94630.91;;;13.88;79.19
56831;BME280;42713;42.676;23.352;2022-09-12T05:13:30;94634.59;;;13.97;78.49
56831;BME280;42713;42.676;23.352;2022-09-12T05:15:57;94642.47;;;13.97;78.41
56831;BME280;42713;42.676;23.352;2022-09-12T05:18:23;94637.47;;;14.06;77.95
56831;BME280;42713;42.676;23.352;2022-09-12T05:20:51;94631.41;;;14.05;77.18
56831;BME280;42713;42.676;23.352;2022-09-12T05:23:16;94630.59;;;14.10;77.54
56831;BME280;42713;42.676;23.352;2022-09-12T05:25:52;94633.25;;;14.15;77.28
56831;BME280;42713;42.676;23.352;2022-09-12T05:28:19;94625.31;;;14.25;75.92
56831;BME280;42713;42.676;23.352;2022-09-12T05:30:45;94631.13;;;14.22;76.45
56831;BME280;42713;42.676;23.352;2022-09-12T05:33:12;94634.25;;;14.29;76.15
56831;BME280;42713;42.676;23.352;2022-09-12T05:35:37;94645.84;;;14.28;76.01
56831;BME280;42713;42.676;23.352;2022-09-12T05:38:04;94642.69;;;14.31;76.35
56831;BME280;42713;42.676;23.352;2022-09-12T05:40:30;94633.22;;;14.25;75.89
56831;BME280;42713;42.676;23.352;2022-09-12T05:42:56;94640.03;;;14.26;76.01
56831;BME280;42713;42.676;23.352;2022-09-12T05:45:22;94648.47;;;14.28;75.67
56831;BME280;42713;42.676;23.352;2022-09-12T05:47:48;94635.56;;;14.37;75.68
56831;BME280;42713;42.676;23.352;2022-09-12T05:50:13;94630.00;;;14.39;75.50
56831;BME280;42713;42.676;23.352;2022-09-12T05:52:39;94636.59;;;14.46;75.88
56831;BME280;42713;42.676;23.352;2022-09-12T05:55:05;94626.28;;;14.50;74.46
56831;BME280;42713;42.676;23.352;2022-09-12T05:57:30;94627.84;;;14.61;73.95
56831;BME280;42713;42.676;23.352;2022-09-12T05:59:56;94624.16;;;14.68;74.35
56831;BME280;42713;42.676;23.352;2022-09-12T06:02:21;94609.38;;;14.72;74.18
56831;BME280;42713;42.676;23.352;2022-09-12T06:04:47;94618.06;;;14.77;73.32
56831;BME280;42713;42.676;23.352;2022-09-12T06:07:12;94614.59;;;14.82;73.98
56831;BME280;42713;42.676;23.352;2022-09-12T06:09:39;94612.94;;;14.97;73.63
56831;BME280;42713;42.676;23.352;2022-09-12T06:12:04;94609.19;;;15.08;71.59
56831;BME280;42713;42.676;23.352;2022-09-12T06:14:31;94610.25;;;15.07;72.36
56831;BME280;42713;42.676;23.352;2022-09-12T06:16:57;94608.13;;;15.09;71.44
56831;BME280;42713;42.676;23.352;2022-09-12T06:19:23;94605.44;;;15.14;71.56
56831;BME280;42713;42.676;23.352;2022-09-12T06:21:52;94608.00;;;15.24;71.63
56831;BME280;42713;42.676;23.352;2022-09-12T06:24:19;94632.56;;;15.25;70.78
56831;BME280;42713;42.676;23.352;2022-09-12T06:26:45;94619.63;;;15.23;72.02
56831;BME280;42713;42.676;23.352;2022-09-12T06:29:11;94610.16;;;15.22;71.45
56831;BME280;42713;42.676;23.352;2022-09-12T06:31:38;94628.63;;;15.22;71.50
56831;BME280;42713;42.676;23.352;2022-09-12T06:34:07;94632.50;;;15.30;72.76
56831;BME280;42713;42.676;23.352;2022-09-12T06:36:37;94639.13;;;15.28;71.90
56831;BME280;42713;42.676;23.352;2022-09-12T06:39:06;94642.59;;;15.23;72.00
56831;BME280;42713;42.676;23.352;2022-09-12T06:41:32;94647.34;;;15.26;71.97
56831;BME280;42713;42.676;23.352;2022-09-12T06:43:59;94644.13;;;15.34;71.31
56831;BME280;42713;42.676;23.352;2022-09-12T06:46:25;94640.72;;;15.29;71.22
56831;BME280;42713;42.676;23.352;2022-09-12T06:48:51;94639.13;;;15.33;71.85
56831;BME280;42713;42.676;23.352;2022-09-12T06:51:18;94643.75;;;15.51;71.62
56831;BME280;42713;42.676;23.352;2022-09-12T06:53:47;94650.19;;;15.69;71.85
56831;BME280;42713;42.676;23.352;2022-09-12T06:56:20;94652.53;;;15.76;71.12
56831;BME280;42713;42.676;23.352;2022-09-12T06:58:47;94639.78;;;15.83;70.92
56831;BME280;42713;42.676;23.352;2022-09-12T07:01:27;94659.03;;;15.94;70.08
56831;BME280;42713;42.676;23.352;2022-09-12T07:04:01;94663.56;;;15.89;69.18
56831;BME280;42713;42.676;23.352;2022-09-12T07:06:29;94660.09;;;15.88;69.80
56831;BME280;42713;42.676;23.352;2022-09-12T07:08:59;94638.50;;;15.81;69.37
56831;BME280;42713;42.676;23.352;2022-09-12T07:11:28;94641.72;;;15.72;69.76
56831;BME280;42713;42.676;23.352;2022-09-12T07:13:57;94658.63;;;15.71;69.84
56831;BME280;42713;42.676;23.352;2022-09-12T07:16:23;94649.06;;;15.81;70.36
56831;BME280;42713;42.676;23.352;2022-09-12T07:19:00;94663.25;;;15.90;69.67
56831;BME280;42713;42.676;23.352;2022-09-12T07:21:26;94649.19;;;16.00;69.33
56831;BME280;42713;42.676;23.352;2022-09-12T07:23:52;94648.84;;;16.07;68.44
56831;BME280;42713;42.676;23.352;2022-09-12T07:26:26;94651.75;;;16.10;67.31
56831;BME280;42713;42.676;23.352;2022-09-12T07:28:53;94655.22;;;16.06;66.72
56831;BME280;42713;42.676;23.352;2022-09-12T07:31:21;94646.97;;;16.12;66.91
56831;BME280;42713;42.676;23.352;2022-09-12T07:33:47;94650.81;;;16.25;67.01
56831;BME280;42713;42.676;23.352;2022-09-12T07:36:16;94660.56;;;16.30;65.30
56831;BME280;42713;42.676;23.352;2022-09-12T07:38:43;94648.63;;;16.32;66.69
56831;BME280;42713;42.676;23.352;2022-09-12T07:41:13;94663.66;;;16.37;65.91
56831;BME280;42713;42.676;23.352;2022-09-12T07:43:39;94681.63;;;16.35;64.10
56831;BME280;42713;42.676;23.352;2022-09-12T07:46:04;94665.00;;;16.34;64.00
56831;BME280;42713;42.676;23.352;2022-09-12T07:48:30;94650.47;;;16.32;63.76
56831;BME280;42713;42.676;23.352;2022-09-12T07:51:00;94641.94;;;16.40;64.67
56831;BME280;42713;42.676;23.352;2022-09-12T07:53:31;94648.22;;;16.44;63.82
56831;BME280;42713;42.676;23.352;2022-09-12T07:55:57;94657.13;;;16.54;63.03
56831;BME280;42713;42.676;23.352;2022-09-12T07:58:23;94673.38;;;16.66;61.10
56831;BME280;42713;42.676;23.352;2022-09-12T08:00:48;94642.44;;;16.67;60.36
56831;BME280;42713;42.676;23.352;2022-09-12T08:03:14;94655.59;;;16.72;60.88
56831;BME280;42713;42.676;23.352;2022-09-12T08:05:40;94658.28;;;16.91;60.80
56831;BME280;42713;42.676;23.352;2022-09-12T08:08:05;94627.16;;;16.83;59.51
56831;BME280;42713;42.676;23.352;2022-09-12T08:10:31;94653.06;;;16.86;61.18
56831;BME280;42713;42.676;23.352;2022-09-12T08:12:57;94657.00;;;16.88;60.95
56831;BME280;42713;42.676;23.352;2022-09-12T08:15:22;94648.41;;;17.02;60.99
56831;BME280;42713;42.676;23.352;2022-09-12T08:17:48;94648.78;;;17.14;61.85
56831;BME280;42713;42.676;23.352;2022-09-12T08:20:13;94647.75;;;17.10;60.86
56831;BME280;42713;42.676;23.352;2022-09-12T08:22:39;94643.63;;;17.04;60.98
56831;BME280;42713;42.676;23.352;2022-09-12T08:25:05;94642.47;;;17.10;61.10
56831;BME280;42713;42.676;23.352;2022-09-12T08:27:31;94635.25;;;17.16;60.96
56831;BME280;42713;42.676;23.352;2022-09-12T08:29:56;94673.75;;;17.27;60.93
56831;BME280;42713;42.676;23.352;2022-09-12T08:32:22;94646.75;;;17.25;60.44
56831;BME280;42713;42.676;23.352;2022-09-12T08:34:47;94637.66;;;17.31;61.88
56831;BME280;42713;42.676;23.352;2022-09-12T08:37:12;94647.84;;;17.24;60.66
56831;BME280;42713;42.676;23.352;2022-09-12T08:39:38;94642.47;;;17.29;61.27
56831;BME280;42713;42.676;23.352;2022-09-12T08:42:04;94631.03;;;17.34;61.55
56831;BME280;42713;42.676;23.352;2022-09-12T08:47:32;94643.47;;;17.52;59.75
56831;BME280;42713;42.676;23.352;2022-09-12T08:52:38;94645.47;;;17.61;60.04
56831;BME280;42713;42.676;23.352;2022-09-12T08:55:32;94634.97;;;17.69;60.22
56831;BME280;42713;42.676;23.352;2022-09-12T08:58:00;94655.81;;;17.76;58.17
56831;BME280;42713;42.676;23.352;2022-09-12T09:01:06;94624.72;;;17.82;58.43
56831;BME280;42713;42.676;23.352;2022-09-12T09:15:02;94624.78;;;17.63;55.55
56831;BME280;42713;42.676;23.352;2022-09-12T09:17:38;94615.75;;;17.64;56.33
56831;BME280;42713;42.676;23.352;2022-09-12T09:22:41;94611.63;;;17.91;56.88
56831;BME280;42713;42.676;23.352;2022-09-12T09:25:19;94630.94;;;17.91;55.97
56831;BME280;42713;42.676;23.352;2022-09-12T09:28:24;94629.81;;;17.78;55.90
56831;BME280;42713;42.676;23.352;2022-09-12T09:30:42;94615.91;;;17.86;56.41
56831;BME280;42713;42.676;23.352;2022-09-12T09:33:17;94609.34;;;17.84;55.37
56831;BME280;42713;42.676;23.352;2022-09-12T09:35:46;94602.59;;;17.92;56.18
56831;BME280;42713;42.676;23.352;2022-09-12T09:38:46;94604.00;;;18.03;56.21
56831;BME280;42713;42.676;23.352;2022-09-12T09:43:57;94592.03;;;18.06;56.19
56831;BME280;42713;42.676;23.352;2022-09-12T09:46:23;94589.47;;;18.14;55.90
56831;BME280;42713;42.676;23.352;2022-09-12T09:48:49;94587.44;;;18.25;55.21
56831;BME280;42713;42.676;23.352;2022-09-12T09:51:22;94581.16;;;18.21;54.70
56831;BME280;42713;42.676;23.352;2022-09-12T09:54:02;94585.25;;;18.13;55.48
56831;BME280;42713;42.676;23.352;2022-09-12T09:56:36;94607.13;;;18.05;54.44
56831;BME280;42713;42.676;23.352;2022-09-12T10:01:34;94585.56;;;18.12;54.74
56831;BME280;42713;42.676;23.352;2022-09-12T10:03:59;94575.06;;;18.20;54.97
56831;BME280;42713;42.676;23.352;2022-09-12T10:06:29;94595.03;;;18.32;56.05
56831;BME280;42713;42.676;23.352;2022-09-12T10:09:20;94599.22;;;18.33;54.18
56831;BME280;42713;42.676;23.352;2022-09-12T10:11:47;94587.53;;;18.34;55.14
56831;BME280;42713;42.676;23.352;2022-09-12T10:14:30;94632.91;;;18.32;55.17
56831;BME280;42713;42.676;23.352;2022-09-12T10:16:56;94580.66;;;18.33;54.10
56831;BME280;42713;42.676;23.352;2022-09-12T10:19:37;94604.06;;;18.45;54.05
56831;BME280;42713;42.676;23.352;2022-09-12T10:22:05;94581.44;;;18.47;53.33
56831;BME280;42713;42.676;23.352;2022-09-12T10:24:42;94584.00;;;18.52;53.40
56831;BME280;42713;42.676;23.352;2022-09-12T10:29:43;94601.00;;;18.65;54.19
56831;BME280;42713;42.676;23.352;2022-09-12T10:32:22;94574.88;;;18.59;53.86
56831;BME280;42713;42.676;23.352;2022-09-12T10:34:52;94598.13;;;18.62;53.53
56831;BME280;42713;42.676;23.352;2022-09-12T10:37:23;94586.94;;;18.65;53.85
56831;BME280;42713;42.676;23.352;2022-09-12T10:39:53;94597.16;;;18.58;52.77
56831;BME280;42713;42.676;23.352;2022-09-12T10:45:37;94578.41;;;18.54;51.18
56831;BME280;42713;42.676;23.352;2022-09-12T10:48:35;94579.38;;;18.58;51.99
56831;BME280;42713;42.676;23.352;2022-09-12T10:51:01;94580.25;;;18.67;51.01
56831;BME280;42713;42.676;23.352;2022-09-12T10:53:30;94583.88;;;18.86;50.01
56831;BME280;42713;42.676;23.352;2022-09-12T10:58:56;94576.41;;;18.88;50.07
56831;BME280;42713;42.676;23.352;2022-09-12T11:23:55;94595.84;;;19.11;49.82
56831;BME280;42713;42.676;23.352;2022-09-12T11:26:46;94604.66;;;19.20;50.95
56831;BME280;42713;42.676;23.352;2022-09-12T11:32:36;94577.63;;;19.41;50.50
56831;BME280;42713;42.676;23.352;2022-09-12T11:35:18;94587.53;;;19.49;50.46
56831;BME280;42713;42.676;23.352;2022-09-12T11:38:17;94589.47;;;19.35;50.98
56831;BME280;42713;42.676;23.352;2022-09-12T11:40:52;94584.56;;;19.51;50.58
56831;BME280;42713;42.676;23.352;2022-09-12T11:43:37;94587.28;;;19.59;50.46
56831;BME280;42713;42.676;23.352;2022-09-12T11:46:09;94579.63;;;19.58;50.23
56831;BME280;42713;42.676;23.352;2022-09-12T11:48:42;94599.13;;;19.53;50.74
56831;BME280;42713;42.676;23.352;2022-09-12T11:51:22;94585.66;;;19.50;50.76
56831;BME280;42713;42.676;23.352;2022-09-12T11:53:58;94599.41;;;19.52;50.83
56831;BME280;42713;42.676;23.352;2022-09-12T11:56:27;94578.06;;;19.57;49.74
56831;BME280;42713;42.676;23.352;2022-09-12T11:59:13;94593.38;;;19.60;50.45
56831;BME280;42713;42.676;23.352;2022-09-12T12:01:41;94588.63;;;19.71;49.69
56831;BME280;42713;42.676;23.352;2022-09-12T12:04:11;94596.34;;;19.81;50.79
56831;BME280;42713;42.676;23.352;2022-09-12T12:07:04;94579.84;;;19.93;50.54
56831;BME280;42713;42.676;23.352;2022-09-12T12:09:32;94599.28;;;20.02;49.93
56831;BME280;42713;42.676;23.352;2022-09-12T12:12:01;94582.41;;;19.98;48.86
56831;BME280;42713;42.676;23.352;2022-09-12T12:14:35;94563.34;;;20.05;49.04
56831;BME280;42713;42.676;23.352;2022-09-12T12:17:02;94573.59;;;20.20;47.90
56831;BME280;42713;42.676;23.352;2022-09-12T12:19:35;94587.22;;;20.28;47.32
56831;BME280;42713;42.676;23.352;2022-09-12T12:22:22;94560.72;;;20.14;47.38
56831;BME280;42713;42.676;23.352;2022-09-12T12:36:28;94562.41;;;19.78;46.96
56831;BME280;42713;42.676;23.352;2022-09-12T12:38:33;94565.53;;;20.03;47.31
56831;BME280;42713;42.676;23.352;2022-09-12T12:43:41;94558.66;;;20.42;46.58
56831;BME280;42713;42.676;23.352;2022-09-12T12:46:09;94593.44;;;20.63;46.26
56831;BME280;42713;42.676;23.352;2022-09-12T12:48:57;94551.03;;;20.67;46.71
56831;BME280;42713;42.676;23.352;2022-09-12T12:51:32;94579.97;;;20.60;44.90
56831;BME280;42713;42.676;23.352;2022-09-12T12:54:29;94562.25;;;20.46;45.80
56831;BME280;42713;42.676;23.352;2022-09-12T12:57:04;94559.38;;;20.25;47.08
56831;BME280;42713;42.676;23.352;2022-09-12T12:59:30;94561.31;;;20.02;47.19
56831;BME280;42713;42.676;23.352;2022-09-12T13:01:57;94606.31;;;19.98;47.81
56831;BME280;42713;42.676;23.352;2022-09-12T13:04:27;94580.84;;;20.06;48.31
56831;BME280;42713;42.676;23.352;2022-09-12T13:07:01;94562.19;;;20.29;47.72
56831;BME280;42713;42.676;23.352;2022-09-12T13:09:35;94592.31;;;20.47;47.94
56831;BME280;42713;42.676;23.352;2022-09-12T13:12:20;94583.31;;;20.34;47.48
56831;BME280;42713;42.676;23.352;2022-09-12T13:15:00;94568.38;;;20.15;46.88
56831;BME280;42713;42.676;23.352;2022-09-12T13:20:05;94573.13;;;19.96;48.54
56831;BME280;42713;42.676;23.352;2022-09-12T13:22:39;94569.00;;;20.12;46.61
56831;BME280;42713;42.676;23.352;2022-09-12T13:25:30;94553.94;;;19.99;47.74
56831;BME280;42713;42.676;23.352;2022-09-12T13:28:16;94561.91;;;19.99;48.05
56831;BME280;42713;42.676;23.352;2022-09-12T13:30:59;94552.63;;;19.87;48.51
56831;BME280;42713;42.676;23.352;2022-09-12T13:39:13;94565.72;;;20.15;44.35
56831;BME280;42713;42.676;23.352;2022-09-12T13:44:21;94565.84;;;20.50;45.08
56831;BME280;42713;42.676;23.352;2022-09-12T13:46:49;94554.78;;;20.66;45.13
56831;BME280;42713;42.676;23.352;2022-09-12T13:49:34;94545.75;;;21.02;44.65
56831;BME280;42713;42.676;23.352;2022-09-12T13:52:04;94548.41;;;21.46;43.96
56831;BME280;42713;42.676;23.352;2022-09-12T13:54:33;94552.56;;;21.91;43.35
56831;BME280;42713;42.676;23.352;2022-09-12T13:57:02;94537.97;;;22.45;42.17
56831;BME280;42713;42.676;23.352;2022-09-12T13:59:37;94555.06;;;22.44;41.11
56831;BME280;42713;42.676;23.352;2022-09-12T14:02:18;94539.94;;;22.18;41.06
56831;BME280;42713;42.676;23.352;2022-09-12T14:04:45;94553.78;;;22.02;40.55
56831;BME280;42713;42.676;23.352;2022-09-12T14:07:30;94554.75;;;22.36;40.12
56831;BME280;42713;42.676;23.352;2022-09-12T14:09:58;94556.50;;;22.92;39.77
56831;BME280;42713;42.676;23.352;2022-09-12T14:12:38;94550.06;;;22.93;39.19
56831;BME280;42713;42.676;23.352;2022-09-12T14:15:15;94553.00;;;22.79;39.50
56831;BME280;42713;42.676;23.352;2022-09-12T14:17:48;94554.94;;;22.91;39.57
56831;BME280;42713;42.676;23.352;2022-09-12T14:20:18;94540.03;;;23.33;38.46
56831;BME280;42713;42.676;23.352;2022-09-12T14:22:45;94549.25;;;22.72;39.68
56831;BME280;42713;42.676;23.352;2022-09-12T14:25:21;94541.81;;;22.56;40.24
56831;BME280;42713;42.676;23.352;2022-09-12T14:27:52;94543.28;;;22.36;41.06
56831;BME280;42713;42.676;23.352;2022-09-12T14:35:41;94562.19;;;21.48;42.81
56831;BME280;42713;42.676;23.352;2022-09-12T14:40:45;94551.41;;;21.09;43.81
56831;BME280;42713;42.676;23.352;2022-09-12T14:43:27;94580.63;;;20.65;44.99
56831;BME280;42713;42.676;23.352;2022-09-12T14:46:27;94555.34;;;20.36;46.37
56831;BME280;42713;42.676;23.352;2022-09-12T14:49:12;94570.88;;;20.12;46.23
56831;BME280;42713;42.676;23.352;2022-09-12T14:51:42;94570.72;;;20.08;46.70
56831;BME280;42713;42.676;23.352;2022-09-12T14:54:43;94562.94;;;20.20;46.46
56831;BME280;42713;42.676;23.352;2022-09-12T14:57:32;94554.13;;;20.51;45.69
56831;BME280;42713;42.676;23.352;2022-09-12T15:00:24;94552.69;;;20.45;45.99
56831;BME280;42713;42.676;23.352;2022-09-12T15:02:52;94562.78;;;20.26;46.95
56831;BME280;42713;42.676;23.352;2022-09-12T15:05:23;94569.59;;;20.49;45.87
56831;BME280;42713;42.676;23.352;2022-09-12T15:10:35;94545.38;;;19.56;47.66
56831;BME280;42713;42.676;23.352;2022-09-12T15:15:31;94569.78;;;19.58;48.33
56831;BME280;42713;42.676;23.352;2022-09-12T15:17:57;94575.09;;;19.58;48.63
56831;BME280;42713;42.676;23.352;2022-09-12T15:20:23;94557.22;;;19.50;49.35
56831;BME280;42713;42.676;23.352;2022-09-12T15:22:49;94582.88;;;19.55;49.09
56831;BME280;42713;42.676;23.352;2022-09-12T15:25:15;94578.31;;;19.47;49.32
56831;BME280;42713;42.676;23.352;2022-09-12T15:27:41;94567.00;;;19.41;49.50
56831;BME280;42713;42.676;23.352;2022-09-12T15:30:08;94574.50;;;19.39;50.41